Terminal Aerodrome Forecast
Issued by NWS

Home | Current Version | Previous Version | Text Only | Print | Product List | Glossary On
Versions: 1 2 3 4 5 6 7 8 9 10 11 12 13 14 15
000
FTUS45 KCYS 242010 AAA
TAFAIA
TAF AMD
KAIA 242010Z 2420/2518 35020G28KT 1/2SM SN FG OVC015
      TEMPO 2420/2424 1SM -SN
     FM250600 33013KT 4SM -SN BR BKN015 OVC025=

USA.gov is the U.S. government's official web portal to all federal, state and local government web resources and services.